sensor_id;sensor_type;location;lat;lon;timestamp;P1;durP1;ratioP1;P2;durP2;ratioP2
30898;SDS011;17914;52.484;13.424;2024-01-30T00:01:19;28.20;;;18.85;;
30898;SDS011;17914;52.484;13.424;2024-01-30T00:03:48;29.70;;;19.33;;
30898;SDS011;17914;52.484;13.424;2024-01-30T00:06:18;26.48;;;18.00;;
30898;SDS011;17914;52.484;13.424;2024-01-30T00:08:47;25.83;;;17.55;;
30898;SDS011;17914;52.484;13.424;2024-01-30T00:11:16;25.55;;;17.63;;
30898;SDS011;17914;52.484;13.424;2024-01-30T00:13:44;25.50;;;17.20;;
30898;SDS011;17914;52.484;13.424;2024-01-30T00:16:19;23.08;;;16.83;;
30898;SDS011;17914;52.484;13.424;2024-01-30T00:18:49;26.85;;;17.05;;
30898;SDS011;17914;52.484;13.424;2024-01-30T00:21:18;26.20;;;16.77;;
30898;SDS011;17914;52.484;13.424;2024-01-30T00:23:46;21.92;;;15.30;;
30898;SDS011;17914;52.484;13.424;2024-01-30T00:26:14;22.27;;;16.20;;
30898;SDS011;17914;52.484;13.424;2024-01-30T00:28:42;23.75;;;16.25;;
30898;SDS011;17914;52.484;13.424;2024-01-30T00:31:10;20.42;;;14.15;;
30898;SDS011;17914;52.484;13.424;2024-01-30T00:33:40;21.92;;;15.45;;
30898;SDS011;17914;52.484;13.424;2024-01-30T00:36:10;21.00;;;14.23;;
30898;SDS011;17914;52.484;13.424;2024-01-30T00:38:38;21.05;;;13.27;;
30898;SDS011;17914;52.484;13.424;2024-01-30T00:41:07;20.10;;;14.48;;
30898;SDS011;17914;52.484;13.424;2024-01-30T00:43:36;22.25;;;13.45;;
30898;SDS011;17914;52.484;13.424;2024-01-30T00:46:04;19.67;;;13.90;;
30898;SDS011;17914;52.484;13.424;2024-01-30T00:48:32;19.67;;;13.77;;
30898;SDS011;17914;52.484;13.424;2024-01-30T00:51:00;17.88;;;13.70;;
30898;SDS011;17914;52.484;13.424;2024-01-30T00:53:29;18.40;;;12.88;;
30898;SDS011;17914;52.484;13.424;2024-01-30T00:55:57;18.85;;;12.70;;
30898;SDS011;17914;52.484;13.424;2024-01-30T00:58:25;18.55;;;12.90;;
30898;SDS011;17914;52.484;13.424;2024-01-30T01:00:53;18.23;;;11.85;;
30898;SDS011;17914;52.484;13.424;2024-01-30T01:03:21;20.35;;;12.40;;
30898;SDS011;17914;52.484;13.424;2024-01-30T01:05:50;18.65;;;12.30;;
30898;SDS011;17914;52.484;13.424;2024-01-30T01:08:18;19.13;;;11.70;;
30898;SDS011;17914;52.484;13.424;2024-01-30T01:10:47;17.00;;;11.98;;
30898;SDS011;17914;52.484;13.424;2024-01-30T01:13:15;17.40;;;11.20;;
30898;SDS011;17914;52.484;13.424;2024-01-30T01:15:44;17.95;;;12.43;;
30898;SDS011;17914;52.484;13.424;2024-01-30T01:18:12;16.17;;;10.80;;
30898;SDS011;17914;52.484;13.424;2024-01-30T01:20:40;17.27;;;11.65;;
30898;SDS011;17914;52.484;13.424;2024-01-30T01:23:08;15.80;;;10.93;;
30898;SDS011;17914;52.484;13.424;2024-01-30T01:25:36;16.67;;;11.27;;
30898;SDS011;17914;52.484;13.424;2024-01-30T01:28:05;16.45;;;11.18;;
30898;SDS011;17914;52.484;13.424;2024-01-30T01:30:33;16.80;;;9.52;;
30898;SDS011;17914;52.484;13.424;2024-01-30T01:33:02;15.88;;;10.30;;
30898;SDS011;17914;52.484;13.424;2024-01-30T01:35:30;15.82;;;9.65;;
30898;SDS011;17914;52.484;13.424;2024-01-30T01:37:58;14.25;;;9.73;;
30898;SDS011;17914;52.484;13.424;2024-01-30T01:40:26;15.02;;;10.82;;
30898;SDS011;17914;52.484;13.424;2024-01-30T01:42:55;15.55;;;9.23;;
30898;SDS011;17914;52.484;13.424;2024-01-30T01:45:25;13.05;;;9.57;;
30898;SDS011;17914;52.484;13.424;2024-01-30T01:47:53;14.18;;;8.40;;
30898;SDS011;17914;52.484;13.424;2024-01-30T01:50:21;13.27;;;9.25;;
30898;SDS011;17914;52.484;13.424;2024-01-30T01:52:50;12.68;;;8.88;;
30898;SDS011;17914;52.484;13.424;2024-01-30T01:55:20;10.57;;;8.57;;
30898;SDS011;17914;52.484;13.424;2024-01-30T01:57:50;12.38;;;8.88;;
30898;SDS011;17914;52.484;13.424;2024-01-30T02:00:20;12.95;;;8.82;;
30898;SDS011;17914;52.484;13.424;2024-01-30T02:02:50;11.05;;;8.50;;
30898;SDS011;17914;52.484;13.424;2024-01-30T02:05:20;9.57;;;7.57;;
30898;SDS011;17914;52.484;13.424;2024-01-30T02:07:48;11.57;;;8.50;;
30898;SDS011;17914;52.484;13.424;2024-01-30T02:10:18;11.38;;;7.90;;
30898;SDS011;17914;52.484;13.424;2024-01-30T02:12:46;14.63;;;9.32;;
30898;SDS011;17914;52.484;13.424;2024-01-30T02:15:15;11.48;;;7.60;;
30898;SDS011;17914;52.484;13.424;2024-01-30T02:17:44;11.95;;;7.78;;
30898;SDS011;17914;52.484;13.424;2024-01-30T02:20:13;12.55;;;7.28;;
30898;SDS011;17914;52.484;13.424;2024-01-30T02:22:43;10.50;;;7.90;;
30898;SDS011;17914;52.484;13.424;2024-01-30T02:25:11;10.13;;;7.60;;
30898;SDS011;17914;52.484;13.424;2024-01-30T02:27:39;10.43;;;7.30;;
30898;SDS011;17914;52.484;13.424;2024-01-30T02:30:07;10.57;;;7.55;;
30898;SDS011;17914;52.484;13.424;2024-01-30T02:32:36;11.38;;;7.93;;
30898;SDS011;17914;52.484;13.424;2024-01-30T02:35:04;11.95;;;7.47;;
30898;SDS011;17914;52.484;13.424;2024-01-30T02:37:32;10.05;;;7.45;;
30898;SDS011;17914;52.484;13.424;2024-01-30T02:40:02;10.38;;;7.25;;
30898;SDS011;17914;52.484;13.424;2024-01-30T02:42:30;10.25;;;7.07;;
30898;SDS011;17914;52.484;13.424;2024-01-30T02:44:58;9.63;;;6.95;;
30898;SDS011;17914;52.484;13.424;2024-01-30T02:47:26;10.77;;;7.25;;
30898;SDS011;17914;52.484;13.424;2024-01-30T02:49:54;9.75;;;7.28;;
30898;SDS011;17914;52.484;13.424;2024-01-30T02:52:23;9.15;;;6.50;;
30898;SDS011;17914;52.484;13.424;2024-01-30T02:54:51;12.10;;;7.82;;
30898;SDS011;17914;52.484;13.424;2024-01-30T02:57:20;11.23;;;7.03;;
30898;SDS011;17914;52.484;13.424;2024-01-30T02:59:48;11.20;;;6.70;;
30898;SDS011;17914;52.484;13.424;2024-01-30T03:02:16;11.40;;;6.53;;
30898;SDS011;17914;52.484;13.424;2024-01-30T03:04:44;9.50;;;6.85;;
30898;SDS011;17914;52.484;13.424;2024-01-30T03:07:13;9.65;;;6.28;;
30898;SDS011;17914;52.484;13.424;2024-01-30T03:09:41;10.43;;;6.53;;
30898;SDS011;17914;52.484;13.424;2024-01-30T03:12:10;8.75;;;6.65;;
30898;SDS011;17914;52.484;13.424;2024-01-30T03:14:39;11.30;;;6.93;;
30898;SDS011;17914;52.484;13.424;2024-01-30T03:17:08;8.32;;;5.82;;
30898;SDS011;17914;52.484;13.424;2024-01-30T03:19:36;8.85;;;6.25;;
30898;SDS011;17914;52.484;13.424;2024-01-30T03:22:04;9.40;;;6.47;;
30898;SDS011;17914;52.484;13.424;2024-01-30T03:24:32;9.70;;;6.15;;
30898;SDS011;17914;52.484;13.424;2024-01-30T03:27:00;10.32;;;6.60;;
30898;SDS011;17914;52.484;13.424;2024-01-30T03:29:28;7.05;;;5.63;;
30898;SDS011;17914;52.484;13.424;2024-01-30T03:31:58;9.63;;;6.57;;
30898;SDS011;17914;52.484;13.424;2024-01-30T03:34:26;7.30;;;5.82;;
30898;SDS011;17914;52.484;13.424;2024-01-30T03:36:54;8.60;;;5.90;;
30898;SDS011;17914;52.484;13.424;2024-01-30T03:39:24;8.73;;;5.82;;
30898;SDS011;17914;52.484;13.424;2024-01-30T03:41:52;7.28;;;5.10;;
30898;SDS011;17914;52.484;13.424;2024-01-30T03:44:20;8.70;;;6.63;;
30898;SDS011;17914;52.484;13.424;2024-01-30T03:46:48;8.07;;;5.95;;
30898;SDS011;17914;52.484;13.424;2024-01-30T03:49:17;8.07;;;5.97;;
30898;SDS011;17914;52.484;13.424;2024-01-30T03:51:45;7.53;;;5.50;;
30898;SDS011;17914;52.484;13.424;2024-01-30T03:54:14;8.07;;;5.70;;
30898;SDS011;17914;52.484;13.424;2024-01-30T03:56:42;7.22;;;5.63;;
30898;SDS011;17914;52.484;13.424;2024-01-30T03:59:10;7.32;;;5.63;;
30898;SDS011;17914;52.484;13.424;2024-01-30T04:01:38;12.07;;;7.43;;
30898;SDS011;17914;52.484;13.424;2024-01-30T04:04:07;10.95;;;7.30;;
30898;SDS011;17914;52.484;13.424;2024-01-30T04:06:36;13.48;;;8.98;;
30898;SDS011;17914;52.484;13.424;2024-01-30T04:09:04;14.10;;;9.73;;
30898;SDS011;17914;52.484;13.424;2024-01-30T04:11:32;16.27;;;10.95;;
30898;SDS011;17914;52.484;13.424;2024-01-30T04:14:00;16.05;;;10.35;;
30898;SDS011;17914;52.484;13.424;2024-01-30T04:16:28;16.25;;;11.38;;
30898;SDS011;17914;52.484;13.424;2024-01-30T04:18:57;17.63;;;12.57;;
30898;SDS011;17914;52.484;13.424;2024-01-30T04:21:26;15.85;;;11.07;;
30898;SDS011;17914;52.484;13.424;2024-01-30T04:23:55;17.40;;;11.88;;
30898;SDS011;17914;52.484;13.424;2024-01-30T04:26:24;17.67;;;11.55;;
30898;SDS011;17914;52.484;13.424;2024-01-30T04:28:52;20.63;;;13.48;;
30898;SDS011;17914;52.484;13.424;2024-01-30T04:31:20;16.17;;;11.93;;
30898;SDS011;17914;52.484;13.424;2024-01-30T04:33:48;17.95;;;12.52;;
30898;SDS011;17914;52.484;13.424;2024-01-30T04:36:16;17.15;;;12.02;;
30898;SDS011;17914;52.484;13.424;2024-01-30T04:38:44;18.02;;;12.45;;
30898;SDS011;17914;52.484;13.424;2024-01-30T04:41:14;18.67;;;13.93;;
30898;SDS011;17914;52.484;13.424;2024-01-30T04:43:42;20.05;;;12.73;;
30898;SDS011;17914;52.484;13.424;2024-01-30T04:46:10;20.63;;;12.52;;
30898;SDS011;17914;52.484;13.424;2024-01-30T04:48:38;18.23;;;12.27;;
30898;SDS011;17914;52.484;13.424;2024-01-30T04:51:06;17.45;;;11.40;;
30898;SDS011;17914;52.484;13.424;2024-01-30T04:53:34;16.73;;;11.88;;
30898;SDS011;17914;52.484;13.424;2024-01-30T04:56:01;17.55;;;11.10;;
30898;SDS011;17914;52.484;13.424;2024-01-30T04:58:31;18.73;;;10.52;;
30898;SDS011;17914;52.484;13.424;2024-01-30T05:00:59;17.27;;;11.30;;
30898;SDS011;17914;52.484;13.424;2024-01-30T05:03:27;16.50;;;10.98;;
30898;SDS011;17914;52.484;13.424;2024-01-30T05:05:55;16.38;;;10.38;;
30898;SDS011;17914;52.484;13.424;2024-01-30T05:08:23;16.70;;;11.07;;
30898;SDS011;17914;52.484;13.424;2024-01-30T05:10:51;16.00;;;10.25;;
30898;SDS011;17914;52.484;13.424;2024-01-30T05:13:19;14.05;;;9.68;;
30898;SDS011;17914;52.484;13.424;2024-01-30T05:15:49;11.98;;;8.70;;
30898;SDS011;17914;52.484;13.424;2024-01-30T05:18:17;16.15;;;10.50;;
30898;SDS011;17914;52.484;13.424;2024-01-30T05:20:45;17.25;;;10.80;;
30898;SDS011;17914;52.484;13.424;2024-01-30T05:23:13;15.27;;;10.07;;
30898;SDS011;17914;52.484;13.424;2024-01-30T05:25:41;12.88;;;9.95;;
30898;SDS011;17914;52.484;13.424;2024-01-30T05:28:09;16.20;;;10.75;;
30898;SDS011;17914;52.484;13.424;2024-01-30T05:30:37;14.88;;;10.30;;
30898;SDS011;17914;52.484;13.424;2024-01-30T05:33:07;13.80;;;8.95;;
30898;SDS011;17914;52.484;13.424;2024-01-30T05:35:36;13.77;;;9.47;;
30898;SDS011;17914;52.484;13.424;2024-01-30T05:38:04;13.93;;;9.57;;
30898;SDS011;17914;52.484;13.424;2024-01-30T05:40:32;14.02;;;9.50;;
30898;SDS011;17914;52.484;13.424;2024-01-30T05:43:00;12.43;;;8.75;;
30898;SDS011;17914;52.484;13.424;2024-01-30T05:45:29;12.55;;;8.55;;
30898;SDS011;17914;52.484;13.424;2024-01-30T05:47:57;12.30;;;8.20;;
30898;SDS011;17914;52.484;13.424;2024-01-30T05:50:26;13.05;;;8.85;;
30898;SDS011;17914;52.484;13.424;2024-01-30T05:52:55;12.20;;;8.48;;
30898;SDS011;17914;52.484;13.424;2024-01-30T05:55:23;13.32;;;8.30;;
30898;SDS011;17914;52.484;13.424;2024-01-30T05:57:51;12.70;;;8.63;;
30898;SDS011;17914;52.484;13.424;2024-01-30T06:00:19;12.50;;;8.10;;
30898;SDS011;17914;52.484;13.424;2024-01-30T06:02:48;10.80;;;7.43;;
30898;SDS011;17914;52.484;13.424;2024-01-30T06:05:16;10.90;;;8.13;;
30898;SDS011;17914;52.484;13.424;2024-01-30T06:07:45;10.68;;;7.65;;
30898;SDS011;17914;52.484;13.424;2024-01-30T06:10:13;10.98;;;7.45;;
30898;SDS011;17914;52.484;13.424;2024-01-30T06:12:41;10.10;;;6.40;;
30898;SDS011;17914;52.484;13.424;2024-01-30T06:15:10;8.75;;;6.53;;
30898;SDS011;17914;52.484;13.424;2024-01-30T06:17:39;11.95;;;7.88;;
30898;SDS011;17914;52.484;13.424;2024-01-30T06:20:07;9.48;;;7.03;;
30898;SDS011;17914;52.484;13.424;2024-01-30T06:22:35;8.15;;;6.53;;
30898;SDS011;17914;52.484;13.424;2024-01-30T06:25:05;9.80;;;7.18;;
30898;SDS011;17914;52.484;13.424;2024-01-30T06:27:33;8.85;;;6.78;;
30898;SDS011;17914;52.484;13.424;2024-01-30T06:30:01;8.48;;;6.38;;
30898;SDS011;17914;52.484;13.424;2024-01-30T06:32:30;13.35;;;8.35;;
30898;SDS011;17914;52.484;13.424;2024-01-30T06:35:01;15.57;;;7.85;;
30898;SDS011;17914;52.484;13.424;2024-01-30T06:37:29;8.95;;;6.63;;
30898;SDS011;17914;52.484;13.424;2024-01-30T06:39:57;10.50;;;6.72;;
30898;SDS011;17914;52.484;13.424;2024-01-30T06:42:26;13.38;;;6.38;;
30898;SDS011;17914;52.484;13.424;2024-01-30T06:44:54;11.27;;;7.38;;
30898;SDS011;17914;52.484;13.424;2024-01-30T06:47:22;11.15;;;7.15;;
30898;SDS011;17914;52.484;13.424;2024-01-30T06:49:50;10.90;;;6.82;;
30898;SDS011;17914;52.484;13.424;2024-01-30T06:52:19;13.75;;;6.43;;
30898;SDS011;17914;52.484;13.424;2024-01-30T06:54:47;14.85;;;6.93;;
30898;SDS011;17914;52.484;13.424;2024-01-30T06:57:15;12.98;;;6.38;;
30898;SDS011;17914;52.484;13.424;2024-01-30T06:59:44;10.50;;;6.43;;
30898;SDS011;17914;52.484;13.424;2024-01-30T07:02:13;9.15;;;6.82;;
30898;SDS011;17914;52.484;13.424;2024-01-30T07:04:41;14.55;;;6.85;;
30898;SDS011;17914;52.484;13.424;2024-01-30T07:07:12;11.88;;;6.70;;
30898;SDS011;17914;52.484;13.424;2024-01-30T07:09:42;13.70;;;6.93;;
30898;SDS011;17914;52.484;13.424;2024-01-30T07:12:10;11.23;;;6.50;;
30898;SDS011;17914;52.484;13.424;2024-01-30T07:14:38;10.38;;;7.20;;
30898;SDS011;17914;52.484;13.424;2024-01-30T07:17:07;14.73;;;6.50;;
30898;SDS011;17914;52.484;13.424;2024-01-30T07:19:35;11.10;;;6.97;;
30898;SDS011;17914;52.484;13.424;2024-01-30T07:22:03;12.10;;;6.63;;
30898;SDS011;17914;52.484;13.424;2024-01-30T07:24:32;10.20;;;6.60;;
30898;SDS011;17914;52.484;13.424;2024-01-30T07:27:00;10.18;;;5.95;;
30898;SDS011;17914;52.484;13.424;2024-01-30T07:29:28;12.60;;;6.65;;
30898;SDS011;17914;52.484;13.424;2024-01-30T07:31:56;9.65;;;5.78;;
30898;SDS011;17914;52.484;13.424;2024-01-30T07:34:26;10.57;;;6.38;;
30898;SDS011;17914;52.484;13.424;2024-01-30T07:36:54;10.55;;;6.68;;
30898;SDS011;17914;52.484;13.424;2024-01-30T07:39:23;10.00;;;6.32;;
30898;SDS011;17914;52.484;13.424;2024-01-30T07:41:51;10.40;;;5.82;;
30898;SDS011;17914;52.484;13.424;2024-01-30T07:44:19;11.32;;;6.55;;
30898;SDS011;17914;52.484;13.424;2024-01-30T07:46:47;9.05;;;6.70;;
30898;SDS011;17914;52.484;13.424;2024-01-30T07:49:15;8.60;;;5.85;;
30898;SDS011;17914;52.484;13.424;2024-01-30T07:51:44;11.15;;;6.72;;
30898;SDS011;17914;52.484;13.424;2024-01-30T07:54:12;10.75;;;6.38;;
30898;SDS011;17914;52.484;13.424;2024-01-30T07:56:41;9.73;;;5.97;;
30898;SDS011;17914;52.484;13.424;2024-01-30T07:59:09;8.55;;;6.20;;
30898;SDS011;17914;52.484;13.424;2024-01-30T08:01:37;9.65;;;6.15;;
30898;SDS011;17914;52.484;13.424;2024-01-30T08:04:06;12.05;;;6.07;;
30898;SDS011;17914;52.484;13.424;2024-01-30T08:06:34;9.48;;;6.78;;
30898;SDS011;17914;52.484;13.424;2024-01-30T08:09:03;9.27;;;5.80;;
30898;SDS011;17914;52.484;13.424;2024-01-30T08:11:31;8.65;;;6.45;;
30898;SDS011;17914;52.484;13.424;2024-01-30T08:13:59;9.15;;;5.88;;
30898;SDS011;17914;52.484;13.424;2024-01-30T08:16:28;10.07;;;6.35;;
30898;SDS011;17914;52.484;13.424;2024-01-30T08:18:56;8.57;;;5.80;;
30898;SDS011;17914;52.484;13.424;2024-01-30T08:21:24;9.25;;;6.07;;
30898;SDS011;17914;52.484;13.424;2024-01-30T08:23:53;7.15;;;5.63;;
30898;SDS011;17914;52.484;13.424;2024-01-30T08:26:22;7.85;;;5.80;;
30898;SDS011;17914;52.484;13.424;2024-01-30T08:28:50;9.82;;;6.68;;
30898;SDS011;17914;52.484;13.424;2024-01-30T08:31:20;9.13;;;6.32;;
30898;SDS011;17914;52.484;13.424;2024-01-30T08:33:48;10.43;;;6.60;;
30898;SDS011;17914;52.484;13.424;2024-01-30T08:36:16;12.77;;;7.38;;
30898;SDS011;17914;52.484;13.424;2024-01-30T08:38:45;9.57;;;5.82;;
30898;SDS011;17914;52.484;13.424;2024-01-30T08:41:13;9.75;;;6.93;;
30898;SDS011;17914;52.484;13.424;2024-01-30T08:43:42;9.20;;;6.70;;
30898;SDS011;17914;52.484;13.424;2024-01-30T08:46:11;9.25;;;6.95;;
30898;SDS011;17914;52.484;13.424;2024-01-30T08:48:39;11.00;;;7.50;;
30898;SDS011;17914;52.484;13.424;2024-01-30T08:51:08;10.90;;;7.18;;
30898;SDS011;17914;52.484;13.424;2024-01-30T08:53:37;10.52;;;7.03;;
30898;SDS011;17914;52.484;13.424;2024-01-30T08:56:06;11.73;;;7.63;;
30898;SDS011;17914;52.484;13.424;2024-01-30T08:58:34;10.73;;;7.65;;
30898;SDS011;17914;52.484;13.424;2024-01-30T09:01:03;13.88;;;9.18;;
30898;SDS011;17914;52.484;13.424;2024-01-30T09:03:32;12.88;;;8.80;;
30898;SDS011;17914;52.484;13.424;2024-01-30T09:06:01;14.30;;;9.10;;
30898;SDS011;17914;52.484;13.424;2024-01-30T09:08:29;14.07;;;9.50;;
30898;SDS011;17914;52.484;13.424;2024-01-30T09:10:57;14.40;;;9.38;;
30898;SDS011;17914;52.484;13.424;2024-01-30T09:13:25;10.95;;;7.78;;
30898;SDS011;17914;52.484;13.424;2024-01-30T09:15:53;14.55;;;9.10;;
30898;SDS011;17914;52.484;13.424;2024-01-30T09:18:23;13.57;;;10.07;;
30898;SDS011;17914;52.484;13.424;2024-01-30T09:20:51;13.10;;;8.73;;
30898;SDS011;17914;52.484;13.424;2024-01-30T09:23:19;16.80;;;11.20;;
30898;SDS011;17914;52.484;13.424;2024-01-30T09:25:48;14.48;;;10.02;;
30898;SDS011;17914;52.484;13.424;2024-01-30T09:28:16;14.75;;;10.07;;
30898;SDS011;17914;52.484;13.424;2024-01-30T09:30:44;15.30;;;10.25;;
30898;SDS011;17914;52.484;13.424;2024-01-30T09:33:13;13.95;;;10.70;;
30898;SDS011;17914;52.484;13.424;2024-01-30T09:35:43;17.58;;;11.30;;
30898;SDS011;17914;52.484;13.424;2024-01-30T09:38:11;13.75;;;10.20;;
30898;SDS011;17914;52.484;13.424;2024-01-30T09:40:39;14.05;;;10.23;;
30898;SDS011;17914;52.484;13.424;2024-01-30T09:43:08;16.27;;;10.07;;
30898;SDS011;17914;52.484;13.424;2024-01-30T09:45:43;15.57;;;11.32;;
30898;SDS011;17914;52.484;13.424;2024-01-30T09:48:13;13.95;;;10.18;;
30898;SDS011;17914;52.484;13.424;2024-01-30T09:50:41;14.98;;;10.32;;
30898;SDS011;17914;52.484;13.424;2024-01-30T09:53:10;13.70;;;10.02;;
30898;SDS011;17914;52.484;13.424;2024-01-30T09:55:40;16.70;;;11.38;;
30898;SDS011;17914;52.484;13.424;2024-01-30T09:58:11;15.88;;;11.18;;
30898;SDS011;17914;52.484;13.424;2024-01-30T10:00:39;15.50;;;11.23;;
30898;SDS011;17914;52.484;13.424;2024-01-30T10:03:08;15.40;;;11.40;;
30898;SDS011;17914;52.484;13.424;2024-01-30T10:05:36;16.20;;;11.45;;
30898;SDS011;17914;52.484;13.424;2024-01-30T10:08:08;15.95;;;11.77;;
30898;SDS011;17914;52.484;13.424;2024-01-30T10:10:36;17.15;;;11.68;;
30898;SDS011;17914;52.484;13.424;2024-01-30T10:13:05;18.35;;;12.73;;
30898;SDS011;17914;52.484;13.424;2024-01-30T10:15:33;13.63;;;9.63;;
30898;SDS011;17914;52.484;13.424;2024-01-30T10:18:01;15.98;;;11.60;;
30898;SDS011;17914;52.484;13.424;2024-01-30T10:20:32;17.02;;;11.77;;
30898;SDS011;17914;52.484;13.424;2024-01-30T10:23:01;14.40;;;10.45;;
30898;SDS011;17914;52.484;13.424;2024-01-30T10:25:31;16.05;;;11.48;;
30898;SDS011;17914;52.484;13.424;2024-01-30T10:28:00;15.15;;;11.95;;
30898;SDS011;17914;52.484;13.424;2024-01-30T10:30:28;16.20;;;11.98;;
30898;SDS011;17914;52.484;13.424;2024-01-30T10:32:56;18.13;;;12.50;;
30898;SDS011;17914;52.484;13.424;2024-01-30T10:35:26;17.67;;;12.10;;
30898;SDS011;17914;52.484;13.424;2024-01-30T10:37:55;19.77;;;13.05;;
30898;SDS011;17914;52.484;13.424;2024-01-30T10:40:26;16.38;;;12.07;;
30898;SDS011;17914;52.484;13.424;2024-01-30T10:42:57;18.05;;;12.32;;
30898;SDS011;17914;52.484;13.424;2024-01-30T10:45:30;18.17;;;12.55;;
30898;SDS011;17914;52.484;13.424;2024-01-30T10:47:59;16.55;;;12.93;;
30898;SDS011;17914;52.484;13.424;2024-01-30T10:50:30;19.23;;;13.10;;
30898;SDS011;17914;52.484;13.424;2024-01-30T10:53:02;15.00;;;11.15;;
30898;SDS011;17914;52.484;13.424;2024-01-30T10:55:31;14.10;;;10.40;;
30898;SDS011;17914;52.484;13.424;2024-01-30T10:58:02;16.20;;;11.10;;
30898;SDS011;17914;52.484;13.424;2024-01-30T11:00:31;17.85;;;12.00;;
30898;SDS011;17914;52.484;13.424;2024-01-30T11:03:00;16.70;;;11.63;;
30898;SDS011;17914;52.484;13.424;2024-01-30T11:05:30;14.07;;;10.55;;
30898;SDS011;17914;52.484;13.424;2024-01-30T11:07:59;16.92;;;12.40;;
30898;SDS011;17914;52.484;13.424;2024-01-30T11:10:44;16.35;;;11.60;;
30898;SDS011;17914;52.484;13.424;2024-01-30T11:13:14;16.58;;;11.85;;
30898;SDS011;17914;52.484;13.424;2024-01-30T11:15:43;14.98;;;10.65;;
30898;SDS011;17914;52.484;13.424;2024-01-30T11:18:11;16.98;;;12.52;;
30898;SDS011;17914;52.484;13.424;2024-01-30T11:20:49;17.50;;;11.65;;
30898;SDS011;17914;52.484;13.424;2024-01-30T11:23:17;16.02;;;11.32;;
30898;SDS011;17914;52.484;13.424;2024-01-30T11:25:45;16.58;;;11.90;;
30898;SDS011;17914;52.484;13.424;2024-01-30T11:28:15;17.23;;;12.13;;
30898;SDS011;17914;52.484;13.424;2024-01-30T11:30:43;16.17;;;11.90;;
30898;SDS011;17914;52.484;13.424;2024-01-30T11:33:14;15.18;;;10.82;;
30898;SDS011;17914;52.484;13.424;2024-01-30T11:35:58;15.18;;;11.18;;
30898;SDS011;17914;52.484;13.424;2024-01-30T11:38:27;15.25;;;11.90;;
30898;SDS011;17914;52.484;13.424;2024-01-30T11:40:56;14.93;;;11.07;;
30898;SDS011;17914;52.484;13.424;2024-01-30T11:43:25;12.63;;;9.35;;
30898;SDS011;17914;52.484;13.424;2024-01-30T11:45:54;15.60;;;11.70;;
30898;SDS011;17914;52.484;13.424;2024-01-30T11:48:22;15.27;;;10.80;;
30898;SDS011;17914;52.484;13.424;2024-01-30T11:50:50;14.57;;;11.73;;
30898;SDS011;17914;52.484;13.424;2024-01-30T11:53:19;13.20;;;10.98;;
30898;SDS011;17914;52.484;13.424;2024-01-30T11:55:51;14.68;;;10.10;;
30898;SDS011;17914;52.484;13.424;2024-01-30T11:58:19;15.38;;;10.05;;
30898;SDS011;17914;52.484;13.424;2024-01-30T12:00:55;13.15;;;10.07;;
30898;SDS011;17914;52.484;13.424;2024-01-30T12:03:24;13.32;;;9.43;;
30898;SDS011;17914;52.484;13.424;2024-01-30T12:05:56;15.48;;;9.65;;
30898;SDS011;17914;52.484;13.424;2024-01-30T12:08:25;17.60;;;12.20;;
30898;SDS011;17914;52.484;13.424;2024-01-30T12:10:57;12.90;;;9.77;;
30898;SDS011;17914;52.484;13.424;2024-01-30T12:13:27;14.60;;;10.95;;
30898;SDS011;17914;52.484;13.424;2024-01-30T12:16:00;14.43;;;10.75;;
30898;SDS011;17914;52.484;13.424;2024-01-30T12:18:28;12.88;;;9.57;;
30898;SDS011;17914;52.484;13.424;2024-01-30T12:20:57;15.77;;;10.13;;
30898;SDS011;17914;52.484;13.424;2024-01-30T12:23:26;11.48;;;9.05;;
30898;SDS011;17914;52.484;13.424;2024-01-30T12:25:54;12.93;;;9.10;;
30898;SDS011;17914;52.484;13.424;2024-01-30T12:28:23;13.57;;;9.98;;
30898;SDS011;17914;52.484;13.424;2024-01-30T12:30:54;14.30;;;11.57;;
30898;SDS011;17914;52.484;13.424;2024-01-30T12:33:26;12.35;;;8.48;;
30898;SDS011;17914;52.484;13.424;2024-01-30T12:35:55;12.15;;;8.93;;
30898;SDS011;17914;52.484;13.424;2024-01-30T12:38:29;13.80;;;9.57;;
30898;SDS011;17914;52.484;13.424;2024-01-30T12:40:57;14.77;;;9.40;;
30898;SDS011;17914;52.484;13.424;2024-01-30T12:43:25;13.70;;;8.77;;
30898;SDS011;17914;52.484;13.424;2024-01-30T12:46:04;11.70;;;9.02;;
30898;SDS011;17914;52.484;13.424;2024-01-30T12:48:34;14.88;;;10.10;;
30898;SDS011;17914;52.484;13.424;2024-01-30T12:51:02;12.27;;;8.98;;
30898;SDS011;17914;52.484;13.424;2024-01-30T12:53:31;12.80;;;8.95;;
30898;SDS011;17914;52.484;13.424;2024-01-30T12:55:59;12.40;;;8.70;;
30898;SDS011;17914;52.484;13.424;2024-01-30T12:58:27;11.15;;;8.25;;
30898;SDS011;17914;52.484;13.424;2024-01-30T13:00:55;11.18;;;7.85;;
30898;SDS011;17914;52.484;13.424;2024-01-30T13:03:24;11.90;;;8.82;;
30898;SDS011;17914;52.484;13.424;2024-01-30T13:05:54;10.90;;;8.48;;
30898;SDS011;17914;52.484;13.424;2024-01-30T13:08:22;10.93;;;8.13;;
30898;SDS011;17914;52.484;13.424;2024-01-30T13:10:50;10.55;;;7.97;;
30898;SDS011;17914;52.484;13.424;2024-01-30T13:13:19;12.10;;;8.55;;
30898;SDS011;17914;52.484;13.424;2024-01-30T13:15:47;11.18;;;7.65;;
30898;SDS011;17914;52.484;13.424;2024-01-30T13:18:15;10.60;;;7.63;;
30898;SDS011;17914;52.484;13.424;2024-01-30T13:20:44;9.82;;;7.03;;
30898;SDS011;17914;52.484;13.424;2024-01-30T13:23:13;10.25;;;7.07;;
30898;SDS011;17914;52.484;13.424;2024-01-30T13:25:41;10.45;;;7.85;;
30898;SDS011;17914;52.484;13.424;2024-01-30T13:28:09;11.45;;;8.88;;
30898;SDS011;17914;52.484;13.424;2024-01-30T13:30:37;11.18;;;8.05;;
30898;SDS011;17914;52.484;13.424;2024-01-30T13:33:05;10.77;;;7.57;;
30898;SDS011;17914;52.484;13.424;2024-01-30T13:35:33;10.05;;;6.78;;
30898;SDS011;17914;52.484;13.424;2024-01-30T13:38:01;12.00;;;8.15;;
30898;SDS011;17914;52.484;13.424;2024-01-30T13:40:31;11.52;;;7.82;;
30898;SDS011;17914;52.484;13.424;2024-01-30T13:42:59;10.77;;;8.20;;
30898;SDS011;17914;52.484;13.424;2024-01-30T13:45:27;11.23;;;7.40;;
30898;SDS011;17914;52.484;13.424;2024-01-30T13:47:55;10.27;;;7.53;;
30898;SDS011;17914;52.484;13.424;2024-01-30T13:50:24;10.07;;;7.22;;
30898;SDS011;17914;52.484;13.424;2024-01-30T13:52:52;10.05;;;6.75;;
30898;SDS011;17914;52.484;13.424;2024-01-30T13:55:21;10.45;;;7.25;;
30898;SDS011;17914;52.484;13.424;2024-01-30T13:57:51;9.27;;;7.35;;
30898;SDS011;17914;52.484;13.424;2024-01-30T14:00:19;9.02;;;6.32;;
30898;SDS011;17914;52.484;13.424;2024-01-30T14:02:48;11.55;;;7.38;;
30898;SDS011;17914;52.484;13.424;2024-01-30T14:05:16;11.02;;;7.68;;
30898;SDS011;17914;52.484;13.424;2024-01-30T14:07:45;9.07;;;6.32;;
30898;SDS011;17914;52.484;13.424;2024-01-30T14:10:13;8.02;;;6.57;;
30898;SDS011;17914;52.484;13.424;2024-01-30T14:12:42;9.32;;;6.55;;
30898;SDS011;17914;52.484;13.424;2024-01-30T14:15:12;9.98;;;6.95;;
30898;SDS011;17914;52.484;13.424;2024-01-30T14:17:53;9.88;;;6.63;;
30898;SDS011;17914;52.484;13.424;2024-01-30T14:20:22;9.10;;;7.05;;
30898;SDS011;17914;52.484;13.424;2024-01-30T14:22:51;9.05;;;6.18;;
30898;SDS011;17914;52.484;13.424;2024-01-30T14:25:19;10.00;;;7.10;;
30898;SDS011;17914;52.484;13.424;2024-01-30T14:27:47;10.02;;;7.55;;